createdAt,value
2023-02-22T00:02:13.929Z,100.00
2023-02-22T00:04:42.333Z,100.00
2023-02-22T00:07:10.163Z,100.00
2023-02-22T00:09:38.041Z,100.00
2023-02-22T00:12:05.988Z,100.00
2023-02-22T00:14:33.871Z,100.00
2023-02-22T00:17:02.509Z,100.00
2023-02-22T00:19:31.133Z,100.00
2023-02-22T00:21:59.195Z,100.00
2023-02-22T00:24:29.473Z,100.00
2023-02-22T00:26:57.273Z,100.00
2023-02-22T00:29:25.989Z,100.00
2023-02-22T00:31:54.252Z,100.00
2023-02-22T00:34:24.239Z,100.00
2023-02-22T00:36:52.057Z,100.00
2023-02-22T00:39:20.281Z,100.00
2023-02-22T00:41:48.129Z,100.00
2023-02-22T00:44:16.148Z,100.00
2023-02-22T00:46:43.790Z,100.00
2023-02-22T00:49:11.800Z,100.00
2023-02-22T00:51:39.448Z,100.00
2023-02-22T00:54:08.491Z,100.00
2023-02-22T00:56:37.513Z,100.00
2023-02-22T00:59:06.149Z,100.00
2023-02-22T01:01:33.884Z,100.00
2023-02-22T01:04:02.080Z,100.00
2023-02-22T01:06:30.034Z,100.00
2023-02-22T01:08:59.574Z,100.00
2023-02-22T01:11:27.418Z,100.00
2023-02-22T01:13:56.662Z,100.00
2023-02-22T01:16:24.339Z,100.00
2023-02-22T01:18:52.386Z,100.00
2023-02-22T01:21:20.639Z,100.00
2023-02-22T01:23:48.620Z,100.00
2023-02-22T01:26:16.399Z,100.00
2023-02-22T01:28:44.366Z,100.00
2023-02-22T01:31:12.680Z,100.00
2023-02-22T01:33:41.550Z,100.00
2023-02-22T01:36:11.593Z,100.00
2023-02-22T01:38:39.881Z,100.00
2023-02-22T01:41:07.761Z,100.00
2023-02-22T01:43:38.398Z,100.00
2023-02-22T01:46:21.261Z,100.00
2023-02-22T01:49:06.491Z,100.00
2023-02-22T01:51:38.921Z,100.00
2023-02-22T01:54:22.273Z,100.00
2023-02-22T01:57:22.092Z,100.00
2023-02-22T02:00:00.855Z,100.00
2023-02-22T02:02:29.415Z,100.00
2023-02-22T02:04:59.490Z,100.00
2023-02-22T02:07:29.664Z,100.00
2023-02-22T02:10:06.880Z,100.00
2023-02-22T02:12:36.242Z,100.00
2023-02-22T02:15:31.525Z,100.00
2023-02-22T02:18:07.755Z,100.00
2023-02-22T02:20:53.759Z,100.00
2023-02-22T02:23:36.223Z,100.00
2023-02-22T02:26:10.298Z,100.00
2023-02-22T02:28:56.511Z,100.00
2023-02-22T02:31:54.855Z,100.00
2023-02-22T02:34:49.675Z,100.00
2023-02-22T02:37:44.897Z,100.00
2023-02-22T02:40:12.702Z,100.00
2023-02-22T02:43:00.820Z,100.00
2023-02-22T02:45:47.055Z,100.00
2023-02-22T02:48:21.205Z,100.00
2023-02-22T02:50:51.238Z,100.00
2023-02-22T02:53:25.558Z,100.00
2023-02-22T02:55:53.304Z,100.00
2023-02-22T02:58:23.858Z,100.00
2023-02-22T03:00:56.318Z,100.00
2023-02-22T03:03:38.825Z,100.00
2023-02-22T03:06:25.032Z,100.00
2023-02-22T03:09:14.263Z,100.00
2023-02-22T03:12:12.999Z,100.00
2023-02-22T03:15:06.313Z,100.00
2023-02-22T03:17:55.965Z,100.00
2023-02-22T03:20:37.865Z,100.00
2023-02-22T03:23:31.162Z,100.00
2023-02-22T03:26:07.876Z,100.00
2023-02-22T03:28:41.766Z,100.00
2023-02-22T03:31:18.042Z,100.00
2023-02-22T03:34:10.014Z,100.00
2023-02-22T03:36:51.940Z,100.00
2023-02-22T03:39:20.903Z,100.00
2023-02-22T03:41:53.218Z,100.00
2023-02-22T03:44:29.295Z,100.00
2023-02-22T03:47:02.117Z,100.00
2023-02-22T03:49:35.096Z,100.00
2023-02-22T03:52:04.504Z,100.00
2023-02-22T03:54:35.156Z,100.00
2023-02-22T03:57:25.562Z,100.00
2023-02-22T04:00:06.990Z,100.00
2023-02-22T04:02:41.793Z,100.00
2023-02-22T04:08:33.535Z,100.00
2023-02-22T04:11:07.754Z,100.00
2023-02-22T04:13:35.473Z,100.00
2023-02-22T04:16:04.379Z,100.00
2023-02-22T04:18:32.519Z,100.00
2023-02-22T04:21:02.624Z,100.00
2023-02-22T04:23:38.113Z,100.00
2023-02-22T04:26:06.449Z,100.00
2023-02-22T04:28:34.146Z,99.14
2023-02-22T04:31:17.491Z,97.97
2023-02-22T04:33:45.719Z,97.47
2023-02-22T04:36:17.289Z,97.04
2023-02-22T04:38:46.274Z,94.60
2023-02-22T04:41:14.490Z,94.24
2023-02-22T04:43:42.692Z,93.19
2023-02-22T04:46:23.247Z,91.87
2023-02-22T04:48:53.076Z,91.54
2023-02-22T04:51:24.293Z,91.96
2023-02-22T04:53:57.687Z,91.46
2023-02-22T04:56:26.382Z,91.28
2023-02-22T04:58:54.095Z,91.48
2023-02-22T05:01:23.557Z,91.65
2023-02-22T05:03:51.742Z,91.35
2023-02-22T05:06:19.723Z,91.16
2023-02-22T05:08:48.069Z,91.66
2023-02-22T05:11:16.231Z,91.16
2023-02-22T05:13:44.035Z,91.64
2023-02-22T05:16:12.277Z,92.01
2023-02-22T05:18:40.062Z,92.20
2023-02-22T05:21:08.614Z,92.41
2023-02-22T05:23:36.361Z,92.09
2023-02-22T05:26:06.560Z,90.43
2023-02-22T05:28:34.371Z,89.44
2023-02-22T05:31:02.410Z,87.26
2023-02-22T05:33:30.207Z,86.53
2023-02-22T05:35:58.125Z,86.36
2023-02-22T05:38:26.065Z,85.95
2023-02-22T05:40:54.214Z,86.18
2023-02-22T05:43:21.824Z,86.55
2023-02-22T05:45:49.785Z,85.87
2023-02-22T05:48:18.040Z,85.99
2023-02-22T05:50:46.100Z,84.83
2023-02-22T05:53:13.947Z,84.43
2023-02-22T05:55:41.909Z,84.78
2023-02-22T05:58:09.550Z,84.96
2023-02-22T06:00:37.509Z,84.75
2023-02-22T06:03:08.176Z,84.43
2023-02-22T06:05:37.430Z,84.32
2023-02-22T06:08:07.109Z,83.91
2023-02-22T06:10:35.493Z,84.47
2023-02-22T06:13:05.322Z,84.56
2023-02-22T06:15:33.664Z,83.42
2023-02-22T06:18:02.637Z,83.81
2023-02-22T06:20:31.589Z,82.50
2023-02-22T06:22:59.513Z,82.01
2023-02-22T06:25:33.035Z,82.20
2023-02-22T06:28:01.628Z,81.75
2023-02-22T06:30:30.840Z,81.36
2023-02-22T06:32:58.599Z,81.61
2023-02-22T06:35:26.658Z,81.24
2023-02-22T06:37:54.464Z,81.20
2023-02-22T06:40:22.490Z,80.63
2023-02-22T06:42:50.213Z,80.38
2023-02-22T06:45:18.786Z,80.11
2023-02-22T06:47:46.497Z,79.71
2023-02-22T06:50:29.476Z,80.19
2023-02-22T06:52:58.385Z,79.47
2023-02-22T06:55:29.213Z,78.74
2023-02-22T06:57:56.904Z,77.39
2023-02-22T07:00:26.515Z,76.41
2023-02-22T07:02:54.883Z,76.37
2023-02-22T07:05:24.760Z,75.60
2023-02-22T07:07:54.400Z,75.17
2023-02-22T07:10:28.787Z,74.97
2023-02-22T07:12:56.905Z,74.84
2023-02-22T07:15:27.981Z,73.68
2023-02-22T07:17:56.310Z,73.59
2023-02-22T07:20:26.055Z,73.15
2023-02-22T07:22:53.998Z,72.67
2023-02-22T07:25:23.132Z,72.53
2023-02-22T07:27:52.495Z,71.65
2023-02-22T07:30:25.364Z,73.04
2023-02-22T07:32:55.459Z,72.56
2023-02-22T07:35:44.460Z,72.41
2023-02-22T07:38:13.013Z,70.05
2023-02-22T07:40:42.446Z,69.82
2023-02-22T07:43:37.063Z,69.49
2023-02-22T07:46:05.422Z,69.43
2023-02-22T07:48:33.340Z,67.83
2023-02-22T07:51:01.419Z,67.43
2023-02-22T07:53:31.751Z,67.33
2023-02-22T07:56:01.620Z,66.73
2023-02-22T07:58:30.706Z,66.36
2023-02-22T08:00:59.926Z,66.89
2023-02-22T08:03:28.060Z,66.12
2023-02-22T08:05:57.770Z,65.20
2023-02-22T08:08:25.579Z,64.58
2023-02-22T08:10:53.861Z,63.84
2023-02-22T08:13:22.712Z,63.59
2023-02-22T08:15:53.653Z,63.13
2023-02-22T08:18:23.073Z,63.03
2023-02-22T08:20:52.264Z,63.16
2023-02-22T08:23:25.281Z,62.81
2023-02-22T08:25:54.118Z,62.87
2023-02-22T08:28:24.163Z,62.69
2023-02-22T08:30:52.607Z,62.49
2023-02-22T08:33:20.665Z,62.19
2023-02-22T08:35:50.001Z,62.59
2023-02-22T08:38:25.157Z,61.30
2023-02-22T08:40:53.480Z,60.86
2023-02-22T08:43:21.875Z,60.75
2023-02-22T08:45:51.959Z,60.11
2023-02-22T08:48:20.512Z,59.41
2023-02-22T08:50:48.702Z,58.72
2023-02-22T08:53:17.040Z,58.29
2023-02-22T08:55:45.509Z,58.23
2023-02-22T08:58:13.930Z,58.06
2023-02-22T09:00:44.741Z,58.15
2023-02-22T09:03:14.683Z,58.08
2023-02-22T09:05:44.316Z,58.39
2023-02-22T09:08:13.100Z,58.50
2023-02-22T09:10:41.248Z,59.20
2023-02-22T09:13:08.975Z,59.22
2023-02-22T09:15:37.783Z,58.27
2023-02-22T09:18:08.482Z,56.09
2023-02-22T09:20:36.792Z,55.62
2023-02-22T09:23:06.459Z,55.72
2023-02-22T09:25:34.437Z,55.97
2023-02-22T09:28:02.606Z,56.38
2023-02-22T09:30:33.778Z,56.27
2023-02-22T09:33:10.036Z,56.31
2023-02-22T09:35:43.077Z,56.65
2023-02-22T09:38:11.947Z,57.72
2023-02-22T09:41:16.736Z,57.40
2023-02-22T09:44:20.063Z,56.73
2023-02-22T09:46:49.600Z,56.51
2023-02-22T09:49:39.833Z,56.61
2023-02-22T09:52:24.218Z,57.46
2023-02-22T09:55:18.636Z,57.26
2023-02-22T09:57:47.391Z,57.54
2023-02-22T10:00:22.744Z,58.10
2023-02-22T10:03:17.374Z,58.54
2023-02-22T10:05:53.737Z,58.30
2023-02-22T10:08:31.363Z,59.12
2023-02-22T10:11:49.816Z,59.17
2023-02-22T10:14:35.076Z,59.75
2023-02-22T10:17:22.629Z,60.07
2023-02-22T10:20:13.479Z,60.75
2023-02-22T10:22:57.082Z,60.86
2023-02-22T10:25:28.873Z,61.85
2023-02-22T10:28:18.593Z,62.76
2023-02-22T10:30:59.236Z,63.07
2023-02-22T10:33:48.927Z,63.89
2023-02-22T10:36:20.414Z,64.51
2023-02-22T10:38:57.750Z,65.73
2023-02-22T10:41:35.071Z,66.29
2023-02-22T10:44:03.623Z,66.32
2023-02-22T10:46:33.372Z,65.88
2023-02-22T10:49:09.539Z,65.89
2023-02-22T10:51:39.356Z,65.54
2023-02-22T10:54:12.815Z,65.73
2023-02-22T10:56:48.140Z,65.75
2023-02-22T10:59:30.752Z,65.92
2023-02-22T11:01:59.631Z,65.14
2023-02-22T11:04:28.023Z,64.85
2023-02-22T11:07:10.531Z,64.70
2023-02-22T11:09:56.317Z,64.22
2023-02-22T11:12:32.780Z,63.87
2023-02-22T11:15:36.076Z,64.01
2023-02-22T11:18:04.208Z,64.26
2023-02-22T11:20:39.393Z,62.64
2023-02-22T11:23:08.359Z,62.66
2023-02-22T11:25:39.439Z,62.68
2023-02-22T11:28:15.726Z,61.54
2023-02-22T11:30:48.765Z,60.80
2023-02-22T11:33:23.307Z,60.34
2023-02-22T11:35:59.471Z,60.05
2023-02-22T11:38:31.468Z,59.38
2023-02-22T11:41:16.632Z,58.52
2023-02-22T11:43:48.004Z,58.61
2023-02-22T11:46:22.602Z,58.28
2023-02-22T11:49:04.676Z,58.27
2023-02-22T11:51:56.272Z,58.20
2023-02-22T11:54:33.465Z,56.82
2023-02-22T11:57:30.218Z,56.61
2023-02-22T12:00:26.263Z,57.12
2023-02-22T12:03:05.881Z,56.60
2023-02-22T12:05:45.856Z,56.85
2023-02-22T12:08:51.597Z,57.02
2023-02-22T12:11:23.925Z,56.17
2023-02-22T12:14:16.192Z,56.23
2023-02-22T12:16:59.602Z,56.23
2023-02-22T12:20:00.974Z,55.20
2023-02-22T12:22:39.837Z,54.91
2023-02-22T12:25:29.520Z,54.19
2023-02-22T12:28:15.679Z,53.83
2023-02-22T12:31:05.368Z,53.97
2023-02-22T12:34:04.374Z,53.29
2023-02-22T12:36:41.178Z,53.33
2023-02-22T12:39:52.617Z,53.16
2023-02-22T12:42:36.239Z,53.05
2023-02-22T12:45:24.609Z,53.34
2023-02-22T12:48:09.018Z,52.72
2023-02-22T12:50:37.831Z,53.12
2023-02-22T12:53:29.491Z,53.02
2023-02-22T12:56:24.377Z,53.34
2023-02-22T12:59:03.171Z,53.59
2023-02-22T13:01:40.462Z,53.50
2023-02-22T13:04:20.200Z,53.84
2023-02-22T13:07:08.304Z,53.69
2023-02-22T13:09:41.972Z,53.95
2023-02-22T13:12:24.782Z,53.26
2023-02-22T13:15:02.135Z,53.65
2023-02-22T13:17:50.931Z,53.74
2023-02-22T13:20:30.754Z,53.45
2023-02-22T13:23:06.787Z,53.62
2023-02-22T13:25:51.277Z,53.89
2023-02-22T13:28:43.463Z,54.06
2023-02-22T13:31:45.975Z,54.22
2023-02-22T13:34:40.301Z,54.53
2023-02-22T13:37:31.051Z,54.50
2023-02-22T13:40:17.167Z,54.69
2023-02-22T13:43:17.003Z,55.49
2023-02-22T13:45:55.436Z,55.51
2023-02-22T13:48:53.495Z,55.62
2023-02-22T13:51:30.436Z,55.50
2023-02-22T13:54:06.102Z,55.32
2023-02-22T13:56:34.306Z,54.79
2023-02-22T13:59:04.191Z,54.68
2023-02-22T14:01:47.095Z,54.51
2023-02-22T14:04:20.812Z,54.99
2023-02-22T14:06:48.995Z,55.16
2023-02-22T14:09:37.896Z,55.37
2023-02-22T14:12:06.124Z,55.34
2023-02-22T14:14:33.886Z,55.01
2023-02-22T14:17:25.751Z,54.96
2023-02-22T14:20:16.652Z,55.30
2023-02-22T14:22:47.995Z,56.65
2023-02-22T14:25:39.464Z,56.02
2023-02-22T14:28:28.530Z,55.60
2023-02-22T14:31:33.369Z,55.38
2023-02-22T14:34:15.459Z,55.25
2023-02-22T14:36:54.610Z,56.13
2023-02-22T14:39:25.596Z,55.94
2023-02-22T14:42:05.856Z,56.08
2023-02-22T14:44:55.457Z,56.59
2023-02-22T14:48:01.051Z,57.14
2023-02-22T14:50:45.215Z,56.86
2023-02-22T14:53:22.651Z,57.02
2023-02-22T14:56:17.745Z,56.27
2023-02-22T14:59:08.011Z,56.40
2023-02-22T15:01:53.146Z,56.14
2023-02-22T15:04:28.941Z,56.09
2023-02-22T15:07:00.428Z,56.39
2023-02-22T15:09:37.484Z,56.69
2023-02-22T15:12:05.876Z,56.76
2023-02-22T15:14:38.010Z,57.57
2023-02-22T15:17:21.393Z,57.27
2023-02-22T15:19:50.115Z,57.65
2023-02-22T15:22:35.412Z,57.52
2023-02-22T15:25:06.380Z,57.33
2023-02-22T15:27:39.342Z,57.10
2023-02-22T15:30:20.303Z,57.31
2023-02-22T15:33:03.251Z,57.60
2023-02-22T15:35:33.634Z,57.33
2023-02-22T15:38:26.758Z,57.29
2023-02-22T15:41:08.418Z,57.33
2023-02-22T15:43:36.370Z,57.61
2023-02-22T15:46:06.816Z,57.79
2023-02-22T15:48:37.303Z,57.49
2023-02-22T15:51:06.627Z,57.48
2023-02-22T15:53:44.916Z,56.91
2023-02-22T15:56:26.900Z,57.13
2023-02-22T15:59:03.820Z,56.87
2023-02-22T16:01:42.960Z,57.04
2023-02-22T16:04:26.654Z,57.43
2023-02-22T16:07:07.202Z,56.82
2023-02-22T16:09:35.770Z,56.57
2023-02-22T16:12:23.770Z,56.93
2023-02-22T16:14:52.544Z,56.92
2023-02-22T16:17:37.236Z,57.29
2023-02-22T16:20:14.558Z,57.09
2023-02-22T16:22:49.232Z,56.89
2023-02-22T16:25:22.465Z,56.98
2023-02-22T16:27:53.192Z,56.90
2023-02-22T16:30:32.533Z,56.78
2023-02-22T16:33:05.526Z,56.75
2023-02-22T16:35:35.652Z,57.03
2023-02-22T16:38:16.450Z,56.99
2023-02-22T16:40:55.548Z,57.04
2023-02-22T16:43:29.589Z,56.91
2023-02-22T16:45:57.823Z,56.83
2023-02-22T16:48:27.279Z,56.84
2023-02-22T16:51:01.161Z,56.83
2023-02-22T16:53:32.125Z,57.37
2023-02-22T16:56:05.766Z,58.15
2023-02-22T16:58:36.724Z,58.54
2023-02-22T17:01:04.999Z,58.79
2023-02-22T17:03:32.780Z,59.25
2023-02-22T17:06:00.684Z,59.35
2023-02-22T17:08:28.343Z,59.34
2023-02-22T17:10:57.843Z,58.90
2023-02-22T17:13:27.672Z,58.83
2023-02-22T17:15:57.135Z,59.16
2023-02-22T17:18:28.920Z,58.89
2023-02-22T17:20:57.346Z,58.80
2023-02-22T17:23:27.600Z,59.17
2023-02-22T17:25:59.286Z,59.48
2023-02-22T17:28:28.179Z,59.02
2023-02-22T17:31:02.062Z,59.06
2023-02-22T17:33:31.219Z,59.59
2023-02-22T17:36:02.046Z,59.65
2023-02-22T17:38:30.756Z,60.02
2023-02-22T17:41:00.553Z,59.83
2023-02-22T17:43:29.015Z,59.81
2023-02-22T17:45:57.424Z,59.74
2023-02-22T17:48:26.018Z,59.65
2023-02-22T17:50:54.073Z,59.50
2023-02-22T17:53:24.897Z,59.08
2023-02-22T17:55:53.487Z,58.52
2023-02-22T17:58:22.350Z,58.31
2023-02-22T18:00:50.878Z,58.37
2023-02-22T18:03:21.926Z,58.71
2023-02-22T18:05:54.938Z,58.32
2023-02-22T18:08:24.509Z,59.00
2023-02-22T18:10:56.390Z,58.76
2023-02-22T18:13:26.598Z,58.56
2023-02-22T18:16:00.252Z,58.77
2023-02-22T18:18:28.784Z,59.16
2023-02-22T18:20:59.914Z,59.20
2023-02-22T18:23:30.594Z,58.82
2023-02-22T18:26:10.766Z,58.62
2023-02-22T18:28:39.807Z,59.06
2023-02-22T18:31:14.832Z,58.96
2023-02-22T18:33:44.220Z,59.01
2023-02-22T18:36:13.626Z,59.02
2023-02-22T18:38:43.222Z,59.08
2023-02-22T18:41:14.415Z,59.23
2023-02-22T18:43:43.075Z,59.85
2023-02-22T18:46:14.411Z,59.83
2023-02-22T18:48:42.381Z,59.93
2023-02-22T18:51:12.730Z,60.12
2023-02-22T18:53:46.914Z,60.08
2023-02-22T18:56:21.870Z,60.40
2023-02-22T18:58:54.147Z,60.45
2023-02-22T19:01:22.621Z,61.18
2023-02-22T19:03:51.779Z,61.12
2023-02-22T19:06:22.622Z,60.65
2023-02-22T19:08:51.055Z,60.70
2023-02-22T19:11:24.478Z,59.76
2023-02-22T19:13:54.258Z,59.71
2023-02-22T19:16:24.499Z,59.88
2023-02-22T19:18:57.236Z,59.69
2023-02-22T19:21:27.953Z,59.92
2023-02-22T19:24:01.502Z,60.01
2023-02-22T19:26:30.276Z,59.79
2023-02-22T19:28:59.640Z,60.31
2023-02-22T19:31:31.983Z,60.30
2023-02-22T19:34:11.164Z,60.37
2023-02-22T19:36:47.648Z,60.06
2023-02-22T19:39:17.216Z,60.22
2023-02-22T19:41:45.907Z,60.61
2023-02-22T19:44:13.876Z,60.74
2023-02-22T19:46:41.787Z,60.89
2023-02-22T19:49:09.530Z,60.64
2023-02-22T19:51:43.384Z,60.42
2023-02-22T19:54:17.471Z,59.99
2023-02-22T19:56:50.766Z,59.90
2023-02-22T19:59:21.537Z,59.72
2023-02-22T20:01:54.002Z,59.70
2023-02-22T20:04:22.962Z,59.86
2023-02-22T20:06:57.557Z,59.69
2023-02-22T20:09:39.626Z,59.43
2023-02-22T20:12:08.146Z,59.40
2023-02-22T20:14:36.272Z,59.29
2023-02-22T20:17:05.084Z,59.13
2023-02-22T20:19:32.767Z,59.19
2023-02-22T20:22:00.729Z,59.35
2023-02-22T20:24:28.405Z,58.62
2023-02-22T20:26:58.237Z,58.73
2023-02-22T20:29:30.038Z,58.82
2023-02-22T20:32:00.572Z,58.80
2023-02-22T20:34:32.523Z,58.84
2023-02-22T20:37:01.836Z,59.12
2023-02-22T20:39:29.771Z,59.13
2023-02-22T20:42:00.615Z,58.84
2023-02-22T20:44:28.458Z,57.65
2023-02-22T20:46:56.553Z,57.07
2023-02-22T20:49:25.840Z,57.02
2023-02-22T20:51:53.776Z,57.57
2023-02-22T20:54:21.448Z,57.92
2023-02-22T20:56:50.713Z,57.88
2023-02-22T20:59:21.508Z,58.14
2023-02-22T21:01:50.235Z,58.09
2023-02-22T21:04:18.687Z,57.85
2023-02-22T21:06:46.808Z,58.07
2023-02-22T21:09:19.883Z,57.89
2023-02-22T21:11:49.118Z,57.84
2023-02-22T21:14:20.724Z,57.55
2023-02-22T21:16:50.704Z,57.40
2023-02-22T21:19:25.539Z,57.67
2023-02-22T21:21:55.712Z,57.66
2023-02-22T21:24:25.181Z,57.59
2023-02-22T21:26:53.332Z,57.13
2023-02-22T21:29:21.403Z,56.34
2023-02-22T21:31:49.487Z,56.28
2023-02-22T21:34:17.621Z,55.83
2023-02-22T21:36:46.558Z,55.37
2023-02-22T21:39:19.128Z,55.32
2023-02-22T21:41:52.013Z,55.32
2023-02-22T21:44:20.145Z,55.32
2023-02-22T21:46:49.872Z,55.30
2023-02-22T21:49:18.326Z,55.13
2023-02-22T21:51:46.336Z,55.10
2023-02-22T21:54:14.059Z,55.39
2023-02-22T21:56:43.638Z,55.40
2023-02-22T21:59:19.047Z,55.59
2023-02-22T22:02:06.149Z,56.37
2023-02-22T22:04:35.024Z,55.90
2023-02-22T22:07:04.492Z,55.44
2023-02-22T22:09:33.413Z,55.33
2023-02-22T22:12:05.358Z,55.31
2023-02-22T22:14:34.454Z,55.31
2023-02-22T22:17:05.685Z,54.78
2023-02-22T22:19:39.174Z,54.61
2023-02-22T22:22:07.952Z,54.63
2023-02-22T22:24:36.350Z,54.73
2023-02-22T22:27:06.517Z,55.21
2023-02-22T22:29:34.677Z,55.01
2023-02-22T22:32:03.728Z,55.43
2023-02-22T22:34:34.370Z,55.31
2023-02-22T22:37:03.055Z,55.35
2023-02-22T22:39:30.895Z,55.47
2023-02-22T22:41:58.861Z,56.19
2023-02-22T22:44:32.684Z,55.73
2023-02-22T22:47:01.286Z,55.65
2023-02-22T22:49:31.373Z,55.97
2023-02-22T22:51:59.588Z,56.20
2023-02-22T22:54:27.403Z,55.65
2023-02-22T22:56:55.330Z,55.66
2023-02-22T22:59:23.092Z,55.85
2023-02-22T23:01:52.304Z,55.45
2023-02-22T23:04:21.505Z,55.48
2023-02-22T23:06:51.389Z,55.27
2023-02-22T23:09:22.759Z,54.97
2023-02-22T23:12:08.725Z,55.39
2023-02-22T23:14:44.188Z,55.49
2023-02-22T23:17:16.275Z,55.03
2023-02-22T23:19:45.137Z,54.68
2023-02-22T23:22:14.408Z,54.98
2023-02-22T23:24:44.468Z,55.17
2023-02-22T23:27:13.000Z,55.35
2023-02-22T23:29:42.445Z,55.62
2023-02-22T23:32:10.506Z,55.58
2023-02-22T23:34:41.724Z,55.47
2023-02-22T23:37:10.835Z,55.23
2023-02-22T23:39:38.870Z,55.30
2023-02-22T23:42:10.031Z,55.55
2023-02-22T23:44:39.806Z,56.04
2023-02-22T23:47:09.643Z,56.30
2023-02-22T23:49:38.465Z,55.99
2023-02-22T23:52:08.416Z,56.37
2023-02-22T23:54:40.412Z,55.98
2023-02-22T23:57:09.103Z,56.39
2023-02-22T23:59:40.415Z,56.40
